sensor_id;sensor_type;location;lat;lon;timestamp;P1;durP1;ratioP1;P2;durP2;ratioP2
44120;SDS011;29783;52.504;13.478;2023-03-01T00:01:03;22.92;;;11.30;;
44120;SDS011;29783;52.504;13.478;2023-03-01T00:03:34;22.33;;;9.73;;
44120;SDS011;29783;52.504;13.478;2023-03-01T00:06:00;16.67;;;9.50;;
44120;SDS011;29783;52.504;13.478;2023-03-01T00:08:27;23.33;;;11.05;;
44120;SDS011;29783;52.504;13.478;2023-03-01T00:11:27;22.90;;;10.88;;
44120;SDS011;29783;52.504;13.478;2023-03-01T00:13:47;21.58;;;10.55;;
44120;SDS011;29783;52.504;13.478;2023-03-01T00:16:16;26.48;;;11.73;;
44120;SDS011;29783;52.504;13.478;2023-03-01T00:18:44;28.27;;;12.43;;
44120;SDS011;29783;52.504;13.478;2023-03-01T00:21:09;26.25;;;11.63;;
44120;SDS011;29783;52.504;13.478;2023-03-01T00:23:36;32.72;;;11.75;;
44120;SDS011;29783;52.504;13.478;2023-03-01T00:26:05;26.60;;;10.75;;
44120;SDS011;29783;52.504;13.478;2023-03-01T00:28:32;42.97;;;11.77;;
44120;SDS011;29783;52.504;13.478;2023-03-01T00:31:05;27.08;;;11.82;;
44120;SDS011;29783;52.504;13.478;2023-03-01T00:33:32;29.70;;;11.30;;
44120;SDS011;29783;52.504;13.478;2023-03-01T00:35:58;22.33;;;10.88;;
44120;SDS011;29783;52.504;13.478;2023-03-01T00:38:24;26.95;;;10.77;;
44120;SDS011;29783;52.504;13.478;2023-03-01T00:40:50;20.23;;;11.00;;
44120;SDS011;29783;52.504;13.478;2023-03-01T00:43:16;20.33;;;10.95;;
44120;SDS011;29783;52.504;13.478;2023-03-01T00:45:42;23.95;;;10.45;;
44120;SDS011;29783;52.504;13.478;2023-03-01T00:48:08;23.55;;;11.40;;
44120;SDS011;29783;52.504;13.478;2023-03-01T00:50:33;20.33;;;9.93;;
44120;SDS011;29783;52.504;13.478;2023-03-01T00:52:59;29.27;;;10.43;;
44120;SDS011;29783;52.504;13.478;2023-03-01T00:55:25;26.63;;;10.25;;
44120;SDS011;29783;52.504;13.478;2023-03-01T00:57:51;20.33;;;11.07;;
44120;SDS011;29783;52.504;13.478;2023-03-01T01:00:18;19.90;;;9.63;;
44120;SDS011;29783;52.504;13.478;2023-03-01T01:02:45;18.92;;;10.05;;
44120;SDS011;29783;52.504;13.478;2023-03-01T01:05:11;23.58;;;9.48;;
44120;SDS011;29783;52.504;13.478;2023-03-01T01:07:37;19.80;;;9.02;;
44120;SDS011;29783;52.504;13.478;2023-03-01T01:10:03;29.77;;;10.68;;
44120;SDS011;29783;52.504;13.478;2023-03-01T01:12:29;20.27;;;8.90;;
44120;SDS011;29783;52.504;13.478;2023-03-01T01:14:58;18.02;;;8.93;;
44120;SDS011;29783;52.504;13.478;2023-03-01T01:17:24;17.15;;;8.50;;
44120;SDS011;29783;52.504;13.478;2023-03-01T01:19:49;22.55;;;9.23;;
44120;SDS011;29783;52.504;13.478;2023-03-01T01:22:15;22.92;;;8.30;;
44120;SDS011;29783;52.504;13.478;2023-03-01T01:24:41;20.08;;;8.60;;
44120;SDS011;29783;52.504;13.478;2023-03-01T01:27:07;17.33;;;8.85;;
44120;SDS011;29783;52.504;13.478;2023-03-01T01:29:32;17.20;;;8.50;;
44120;SDS011;29783;52.504;13.478;2023-03-01T01:31:58;15.90;;;7.68;;
44120;SDS011;29783;52.504;13.478;2023-03-01T01:34:24;17.75;;;9.52;;
44120;SDS011;29783;52.504;13.478;2023-03-01T01:36:53;16.52;;;7.82;;
44120;SDS011;29783;52.504;13.478;2023-03-01T01:39:19;18.25;;;8.10;;
44120;SDS011;29783;52.504;13.478;2023-03-01T01:41:45;13.20;;;7.25;;
44120;SDS011;29783;52.504;13.478;2023-03-01T01:46:42;17.85;;;6.95;;
44120;SDS011;29783;52.504;13.478;2023-03-01T01:51:55;15.82;;;6.80;;
44120;SDS011;29783;52.504;13.478;2023-03-01T01:55:00;19.00;;;7.30;;
44120;SDS011;29783;52.504;13.478;2023-03-01T01:57:38;11.98;;;6.70;;
44120;SDS011;29783;52.504;13.478;2023-03-01T02:00:21;16.88;;;6.88;;
44120;SDS011;29783;52.504;13.478;2023-03-01T02:02:50;11.70;;;6.47;;
44120;SDS011;29783;52.504;13.478;2023-03-01T02:08:08;12.55;;;6.70;;
44120;SDS011;29783;52.504;13.478;2023-03-01T02:10:37;17.63;;;7.97;;
44120;SDS011;29783;52.504;13.478;2023-03-01T02:13:04;30.10;;;16.95;;
44120;SDS011;29783;52.504;13.478;2023-03-01T02:15:34;32.88;;;17.60;;
44120;SDS011;29783;52.504;13.478;2023-03-01T02:18:01;26.95;;;13.55;;
44120;SDS011;29783;52.504;13.478;2023-03-01T02:23:05;20.02;;;10.60;;
44120;SDS011;29783;52.504;13.478;2023-03-01T02:25:40;21.05;;;9.90;;
44120;SDS011;29783;52.504;13.478;2023-03-01T02:30:41;15.27;;;8.45;;
44120;SDS011;29783;52.504;13.478;2023-03-01T02:33:28;15.85;;;8.75;;
44120;SDS011;29783;52.504;13.478;2023-03-01T02:35:58;18.25;;;8.15;;
44120;SDS011;29783;52.504;13.478;2023-03-01T02:38:25;16.80;;;9.52;;
44120;SDS011;29783;52.504;13.478;2023-03-01T02:40:53;12.75;;;7.50;;
44120;SDS011;29783;52.504;13.478;2023-03-01T02:43:22;18.33;;;7.78;;
44120;SDS011;29783;52.504;13.478;2023-03-01T02:45:56;25.83;;;9.30;;
44120;SDS011;29783;52.504;13.478;2023-03-01T02:48:23;17.75;;;8.65;;
44120;SDS011;29783;52.504;13.478;2023-03-01T02:53:39;17.05;;;8.20;;
44120;SDS011;29783;52.504;13.478;2023-03-01T02:56:14;19.67;;;9.70;;
44120;SDS011;29783;52.504;13.478;2023-03-01T02:58:41;17.67;;;8.68;;
44120;SDS011;29783;52.504;13.478;2023-03-01T03:01:10;20.30;;;9.20;;
44120;SDS011;29783;52.504;13.478;2023-03-01T03:03:41;17.98;;;9.80;;
44120;SDS011;29783;52.504;13.478;2023-03-01T03:06:07;20.48;;;9.18;;
44120;SDS011;29783;52.504;13.478;2023-03-01T03:08:32;25.88;;;9.95;;
44120;SDS011;29783;52.504;13.478;2023-03-01T03:10:58;24.35;;;9.45;;
44120;SDS011;29783;52.504;13.478;2023-03-01T03:13:24;20.13;;;9.77;;
44120;SDS011;29783;52.504;13.478;2023-03-01T03:15:54;18.85;;;10.18;;
44120;SDS011;29783;52.504;13.478;2023-03-01T03:18:21;19.80;;;9.85;;
44120;SDS011;29783;52.504;13.478;2023-03-01T03:20:50;21.55;;;11.13;;
44120;SDS011;29783;52.504;13.478;2023-03-01T03:23:18;25.67;;;11.60;;
44120;SDS011;29783;52.504;13.478;2023-03-01T03:25:50;21.90;;;12.50;;
44120;SDS011;29783;52.504;13.478;2023-03-01T03:28:16;22.10;;;13.27;;
44120;SDS011;29783;52.504;13.478;2023-03-01T03:30:43;21.05;;;12.85;;
44120;SDS011;29783;52.504;13.478;2023-03-01T03:33:09;28.42;;;15.07;;
44120;SDS011;29783;52.504;13.478;2023-03-01T03:35:41;27.42;;;13.75;;
44120;SDS011;29783;52.504;13.478;2023-03-01T03:38:13;26.77;;;14.32;;
44120;SDS011;29783;52.504;13.478;2023-03-01T03:43:19;35.13;;;15.68;;
44120;SDS011;29783;52.504;13.478;2023-03-01T03:45:47;32.95;;;14.65;;
44120;SDS011;29783;52.504;13.478;2023-03-01T03:48:14;31.20;;;16.67;;
44120;SDS011;29783;52.504;13.478;2023-03-01T03:50:41;40.60;;;16.48;;
44120;SDS011;29783;52.504;13.478;2023-03-01T03:53:13;26.75;;;15.30;;
44120;SDS011;29783;52.504;13.478;2023-03-01T03:55:38;28.63;;;15.57;;
44120;SDS011;29783;52.504;13.478;2023-03-01T03:58:05;29.95;;;14.88;;
44120;SDS011;29783;52.504;13.478;2023-03-01T04:00:38;30.08;;;14.93;;
44120;SDS011;29783;52.504;13.478;2023-03-01T04:03:06;24.83;;;14.02;;
44120;SDS011;29783;52.504;13.478;2023-03-01T04:05:32;25.88;;;15.07;;
44120;SDS011;29783;52.504;13.478;2023-03-01T04:07:59;26.40;;;15.07;;
44120;SDS011;29783;52.504;13.478;2023-03-01T04:10:32;28.85;;;15.50;;
44120;SDS011;29783;52.504;13.478;2023-03-01T04:13:07;32.20;;;15.13;;
44120;SDS011;29783;52.504;13.478;2023-03-01T04:15:35;22.20;;;13.63;;
44120;SDS011;29783;52.504;13.478;2023-03-01T04:18:01;28.77;;;14.57;;
44120;SDS011;29783;52.504;13.478;2023-03-01T04:20:29;29.27;;;14.43;;
44120;SDS011;29783;52.504;13.478;2023-03-01T04:22:59;27.20;;;13.57;;
44120;SDS011;29783;52.504;13.478;2023-03-01T04:25:38;27.88;;;12.95;;
44120;SDS011;29783;52.504;13.478;2023-03-01T04:28:06;23.17;;;13.02;;
44120;SDS011;29783;52.504;13.478;2023-03-01T04:30:32;19.98;;;12.05;;
44120;SDS011;29783;52.504;13.478;2023-03-01T04:33:04;21.98;;;13.07;;
44120;SDS011;29783;52.504;13.478;2023-03-01T04:35:31;23.33;;;13.05;;
44120;SDS011;29783;52.504;13.478;2023-03-01T04:37:57;24.90;;;12.65;;
44120;SDS011;29783;52.504;13.478;2023-03-01T04:40:23;23.40;;;12.60;;
44120;SDS011;29783;52.504;13.478;2023-03-01T04:42:49;23.42;;;12.35;;
44120;SDS011;29783;52.504;13.478;2023-03-01T04:45:15;20.90;;;11.27;;
44120;SDS011;29783;52.504;13.478;2023-03-01T04:47:42;25.00;;;12.02;;
44120;SDS011;29783;52.504;13.478;2023-03-01T04:50:10;21.10;;;12.27;;
44120;SDS011;29783;52.504;13.478;2023-03-01T04:52:37;16.88;;;10.82;;
44120;SDS011;29783;52.504;13.478;2023-03-01T04:55:03;21.63;;;12.10;;
44120;SDS011;29783;52.504;13.478;2023-03-01T04:57:30;18.75;;;11.82;;
44120;SDS011;29783;52.504;13.478;2023-03-01T04:59:56;20.85;;;12.55;;
44120;SDS011;29783;52.504;13.478;2023-03-01T05:02:21;23.77;;;12.80;;
44120;SDS011;29783;52.504;13.478;2023-03-01T05:04:47;24.73;;;12.45;;
44120;SDS011;29783;52.504;13.478;2023-03-01T05:07:13;20.65;;;10.70;;
44120;SDS011;29783;52.504;13.478;2023-03-01T05:09:44;20.85;;;12.23;;
44120;SDS011;29783;52.504;13.478;2023-03-01T05:12:13;24.50;;;10.95;;
44120;SDS011;29783;52.504;13.478;2023-03-01T05:14:39;16.90;;;10.25;;
44120;SDS011;29783;52.504;13.478;2023-03-01T05:17:05;18.08;;;10.50;;
44120;SDS011;29783;52.504;13.478;2023-03-01T05:19:32;18.92;;;9.68;;
44120;SDS011;29783;52.504;13.478;2023-03-01T05:21:58;31.70;;;11.75;;
44120;SDS011;29783;52.504;13.478;2023-03-01T05:24:29;19.58;;;11.52;;
44120;SDS011;29783;52.504;13.478;2023-03-01T05:26:55;17.00;;;10.63;;
44120;SDS011;29783;52.504;13.478;2023-03-01T05:29:22;19.63;;;10.60;;
44120;SDS011;29783;52.504;13.478;2023-03-01T05:31:52;16.65;;;11.23;;
44120;SDS011;29783;52.504;13.478;2023-03-01T05:34:22;17.00;;;9.30;;
44120;SDS011;29783;52.504;13.478;2023-03-01T05:37:30;22.65;;;10.55;;
44120;SDS011;29783;52.504;13.478;2023-03-01T05:39:56;20.83;;;11.45;;
44120;SDS011;29783;52.504;13.478;2023-03-01T05:42:22;21.58;;;12.00;;
44120;SDS011;29783;52.504;13.478;2023-03-01T05:44:48;21.70;;;11.13;;
44120;SDS011;29783;52.504;13.478;2023-03-01T05:47:13;22.33;;;11.50;;
44120;SDS011;29783;52.504;13.478;2023-03-01T05:49:39;21.75;;;11.73;;
44120;SDS011;29783;52.504;13.478;2023-03-01T05:52:05;25.50;;;11.57;;
44120;SDS011;29783;52.504;13.478;2023-03-01T05:54:31;22.35;;;12.80;;
44120;SDS011;29783;52.504;13.478;2023-03-01T05:56:58;23.27;;;13.32;;
44120;SDS011;29783;52.504;13.478;2023-03-01T05:59:24;23.15;;;13.23;;
44120;SDS011;29783;52.504;13.478;2023-03-01T06:01:50;23.33;;;12.70;;
44120;SDS011;29783;52.504;13.478;2023-03-01T06:04:16;22.48;;;12.35;;
44120;SDS011;29783;52.504;13.478;2023-03-01T06:06:42;27.45;;;12.30;;
44120;SDS011;29783;52.504;13.478;2023-03-01T06:09:08;23.35;;;13.43;;
44120;SDS011;29783;52.504;13.478;2023-03-01T06:11:35;23.50;;;12.80;;
44120;SDS011;29783;52.504;13.478;2023-03-01T06:14:01;23.77;;;14.60;;
44120;SDS011;29783;52.504;13.478;2023-03-01T06:16:28;27.42;;;14.40;;
44120;SDS011;29783;52.504;13.478;2023-03-01T06:18:54;25.83;;;13.10;;
44120;SDS011;29783;52.504;13.478;2023-03-01T06:21:23;29.52;;;14.98;;
44120;SDS011;29783;52.504;13.478;2023-03-01T06:23:49;29.80;;;14.45;;
44120;SDS011;29783;52.504;13.478;2023-03-01T06:26:18;22.52;;;14.32;;
44120;SDS011;29783;52.504;13.478;2023-03-01T06:28:44;27.05;;;14.73;;
44120;SDS011;29783;52.504;13.478;2023-03-01T06:31:26;29.20;;;14.68;;
44120;SDS011;29783;52.504;13.478;2023-03-01T06:34:07;27.15;;;14.73;;
44120;SDS011;29783;52.504;13.478;2023-03-01T06:36:35;29.60;;;16.55;;
44120;SDS011;29783;52.504;13.478;2023-03-01T06:39:02;23.67;;;14.73;;
44120;SDS011;29783;52.504;13.478;2023-03-01T06:41:27;25.92;;;14.68;;
44120;SDS011;29783;52.504;13.478;2023-03-01T06:43:53;26.40;;;15.07;;
44120;SDS011;29783;52.504;13.478;2023-03-01T06:46:19;23.50;;;14.50;;
44120;SDS011;29783;52.504;13.478;2023-03-01T06:48:46;37.25;;;16.77;;
44120;SDS011;29783;52.504;13.478;2023-03-01T06:51:12;32.28;;;15.13;;
44120;SDS011;29783;52.504;13.478;2023-03-01T06:53:41;27.38;;;13.95;;
44120;SDS011;29783;52.504;13.478;2023-03-01T06:56:10;26.73;;;15.82;;
44120;SDS011;29783;52.504;13.478;2023-03-01T06:58:36;28.35;;;14.85;;
44120;SDS011;29783;52.504;13.478;2023-03-01T07:01:05;34.17;;;14.10;;
44120;SDS011;29783;52.504;13.478;2023-03-01T07:03:32;21.65;;;13.23;;
44120;SDS011;29783;52.504;13.478;2023-03-01T07:05:58;19.60;;;11.70;;
44120;SDS011;29783;52.504;13.478;2023-03-01T07:08:25;34.40;;;13.48;;
44120;SDS011;29783;52.504;13.478;2023-03-01T07:10:59;20.05;;;13.35;;
44120;SDS011;29783;52.504;13.478;2023-03-01T07:13:27;25.27;;;12.48;;
44120;SDS011;29783;52.504;13.478;2023-03-01T07:15:53;25.50;;;12.13;;
44120;SDS011;29783;52.504;13.478;2023-03-01T07:18:18;28.85;;;13.57;;
44120;SDS011;29783;52.504;13.478;2023-03-01T07:20:44;20.20;;;12.57;;
44120;SDS011;29783;52.504;13.478;2023-03-01T07:23:10;25.30;;;14.38;;
44120;SDS011;29783;52.504;13.478;2023-03-01T07:25:36;19.38;;;12.30;;
44120;SDS011;29783;52.504;13.478;2023-03-01T07:28:02;23.92;;;12.77;;
44120;SDS011;29783;52.504;13.478;2023-03-01T07:30:28;21.60;;;12.38;;
44120;SDS011;29783;52.504;13.478;2023-03-01T07:32:55;26.20;;;13.07;;
44120;SDS011;29783;52.504;13.478;2023-03-01T07:35:22;24.45;;;13.68;;
44120;SDS011;29783;52.504;13.478;2023-03-01T07:37:49;22.05;;;13.30;;
44120;SDS011;29783;52.504;13.478;2023-03-01T07:40:15;22.60;;;13.13;;
44120;SDS011;29783;52.504;13.478;2023-03-01T07:42:41;28.02;;;13.90;;
44120;SDS011;29783;52.504;13.478;2023-03-01T07:45:07;28.52;;;13.88;;
44120;SDS011;29783;52.504;13.478;2023-03-01T07:47:33;24.27;;;14.20;;
44120;SDS011;29783;52.504;13.478;2023-03-01T07:49:59;30.75;;;13.60;;
44120;SDS011;29783;52.504;13.478;2023-03-01T07:55:11;28.65;;;13.77;;
44120;SDS011;29783;52.504;13.478;2023-03-01T07:57:37;22.65;;;13.80;;
44120;SDS011;29783;52.504;13.478;2023-03-01T08:00:04;25.35;;;14.32;;
44120;SDS011;29783;52.504;13.478;2023-03-01T08:02:34;28.15;;;14.48;;
44120;SDS011;29783;52.504;13.478;2023-03-01T08:05:00;27.27;;;14.52;;
44120;SDS011;29783;52.504;13.478;2023-03-01T08:07:26;26.92;;;15.18;;
44120;SDS011;29783;52.504;13.478;2023-03-01T08:09:55;31.70;;;14.27;;
44120;SDS011;29783;52.504;13.478;2023-03-01T08:12:21;32.15;;;15.27;;
44120;SDS011;29783;52.504;13.478;2023-03-01T08:14:46;26.77;;;14.30;;
44120;SDS011;29783;52.504;13.478;2023-03-01T08:17:13;42.25;;;15.55;;
44120;SDS011;29783;52.504;13.478;2023-03-01T08:19:39;26.55;;;13.52;;
44120;SDS011;29783;52.504;13.478;2023-03-01T08:22:05;28.00;;;13.40;;
44120;SDS011;29783;52.504;13.478;2023-03-01T08:24:31;32.05;;;12.10;;
44120;SDS011;29783;52.504;13.478;2023-03-01T08:26:57;21.65;;;11.20;;
44120;SDS011;29783;52.504;13.478;2023-03-01T08:29:23;22.90;;;10.82;;
44120;SDS011;29783;52.504;13.478;2023-03-01T08:31:49;19.95;;;10.93;;
44120;SDS011;29783;52.504;13.478;2023-03-01T08:34:16;25.92;;;10.23;;
44120;SDS011;29783;52.504;13.478;2023-03-01T08:36:44;24.58;;;12.77;;
44120;SDS011;29783;52.504;13.478;2023-03-01T08:39:12;23.42;;;12.68;;
44120;SDS011;29783;52.504;13.478;2023-03-01T08:41:41;26.88;;;14.45;;
44120;SDS011;29783;52.504;13.478;2023-03-01T08:44:09;21.55;;;11.82;;
44120;SDS011;29783;52.504;13.478;2023-03-01T08:46:38;23.33;;;12.30;;
44120;SDS011;29783;52.504;13.478;2023-03-01T08:49:06;20.17;;;11.05;;
44120;SDS011;29783;52.504;13.478;2023-03-01T08:51:34;16.10;;;8.27;;
44120;SDS011;29783;52.504;13.478;2023-03-01T08:54:02;13.65;;;6.05;;
44120;SDS011;29783;52.504;13.478;2023-03-01T08:56:35;12.23;;;6.35;;
44120;SDS011;29783;52.504;13.478;2023-03-01T08:59:01;12.95;;;5.85;;
44120;SDS011;29783;52.504;13.478;2023-03-01T09:01:27;13.95;;;5.88;;
44120;SDS011;29783;52.504;13.478;2023-03-01T09:03:53;9.57;;;6.15;;
44120;SDS011;29783;52.504;13.478;2023-03-01T09:06:18;10.30;;;5.40;;
44120;SDS011;29783;52.504;13.478;2023-03-01T09:08:46;8.40;;;5.03;;
44120;SDS011;29783;52.504;13.478;2023-03-01T09:11:14;12.07;;;5.15;;
44120;SDS011;29783;52.504;13.478;2023-03-01T09:13:42;12.65;;;4.72;;
44120;SDS011;29783;52.504;13.478;2023-03-01T09:16:09;7.57;;;4.07;;
44120;SDS011;29783;52.504;13.478;2023-03-01T09:18:37;18.00;;;4.22;;
44120;SDS011;29783;52.504;13.478;2023-03-01T09:21:07;5.55;;;3.60;;
44120;SDS011;29783;52.504;13.478;2023-03-01T09:23:40;8.00;;;4.22;;
44120;SDS011;29783;52.504;13.478;2023-03-01T09:26:08;7.57;;;3.65;;
44120;SDS011;29783;52.504;13.478;2023-03-01T09:28:36;5.25;;;2.42;;
44120;SDS011;29783;52.504;13.478;2023-03-01T09:31:02;11.10;;;3.08;;
44120;SDS011;29783;52.504;13.478;2023-03-01T09:33:29;5.85;;;3.28;;
44120;SDS011;29783;52.504;13.478;2023-03-01T09:35:57;9.77;;;4.20;;
44120;SDS011;29783;52.504;13.478;2023-03-01T09:38:28;9.57;;;3.78;;
44120;SDS011;29783;52.504;13.478;2023-03-01T09:40:54;10.98;;;3.72;;
44120;SDS011;29783;52.504;13.478;2023-03-01T09:46:12;9.45;;;3.78;;
44120;SDS011;29783;52.504;13.478;2023-03-01T09:48:44;8.55;;;3.67;;
44120;SDS011;29783;52.504;13.478;2023-03-01T09:51:32;7.70;;;3.60;;
44120;SDS011;29783;52.504;13.478;2023-03-01T09:54:03;6.55;;;3.58;;
44120;SDS011;29783;52.504;13.478;2023-03-01T09:56:36;7.47;;;4.03;;
44120;SDS011;29783;52.504;13.478;2023-03-01T10:01:49;14.15;;;6.93;;
44120;SDS011;29783;52.504;13.478;2023-03-01T10:09:40;8.55;;;3.33;;
44120;SDS011;29783;52.504;13.478;2023-03-01T10:12:12;5.95;;;3.38;;
44120;SDS011;29783;52.504;13.478;2023-03-01T10:23:16;5.47;;;2.90;;
44120;SDS011;29783;52.504;13.478;2023-03-01T10:31:20;8.27;;;4.10;;
44120;SDS011;29783;52.504;13.478;2023-03-01T10:33:53;10.23;;;3.60;;
44120;SDS011;29783;52.504;13.478;2023-03-01T10:36:20;10.02;;;3.70;;
44120;SDS011;29783;52.504;13.478;2023-03-01T10:38:49;7.22;;;3.42;;
44120;SDS011;29783;52.504;13.478;2023-03-01T10:41:20;7.20;;;3.85;;
44120;SDS011;29783;52.504;13.478;2023-03-01T10:43:54;5.38;;;2.90;;
44120;SDS011;29783;52.504;13.478;2023-03-01T10:46:32;5.60;;;3.03;;
44120;SDS011;29783;52.504;13.478;2023-03-01T10:49:07;7.63;;;2.78;;
44120;SDS011;29783;52.504;13.478;2023-03-01T10:51:41;10.15;;;3.38;;
44120;SDS011;29783;52.504;13.478;2023-03-01T10:56:57;7.28;;;2.70;;
44120;SDS011;29783;52.504;13.478;2023-03-01T10:59:29;9.13;;;3.25;;
44120;SDS011;29783;52.504;13.478;2023-03-01T11:04:58;8.77;;;3.15;;
44120;SDS011;29783;52.504;13.478;2023-03-01T11:07:28;6.63;;;2.58;;
44120;SDS011;29783;52.504;13.478;2023-03-01T11:09:54;5.20;;;2.45;;
44120;SDS011;29783;52.504;13.478;2023-03-01T11:12:20;5.18;;;2.40;;
44120;SDS011;29783;52.504;13.478;2023-03-01T11:14:47;4.47;;;2.38;;
44120;SDS011;29783;52.504;13.478;2023-03-01T11:20:02;8.15;;;2.40;;
44120;SDS011;29783;52.504;13.478;2023-03-01T11:22:53;9.98;;;2.65;;
44120;SDS011;29783;52.504;13.478;2023-03-01T11:25:23;3.78;;;2.30;;
44120;SDS011;29783;52.504;13.478;2023-03-01T11:27:52;3.97;;;2.13;;
44120;SDS011;29783;52.504;13.478;2023-03-01T11:30:24;6.35;;;2.88;;
44120;SDS011;29783;52.504;13.478;2023-03-01T11:39:30;4.53;;;2.45;;
44120;SDS011;29783;52.504;13.478;2023-03-01T11:45:06;5.10;;;2.70;;
44120;SDS011;29783;52.504;13.478;2023-03-01T11:50:26;9.13;;;2.70;;
44120;SDS011;29783;52.504;13.478;2023-03-01T11:56:43;11.20;;;3.05;;
44120;SDS011;29783;52.504;13.478;2023-03-01T12:10:16;15.50;;;1.63;;
44120;SDS011;29783;52.504;13.478;2023-03-01T12:18:25;3.80;;;1.75;;
44120;SDS011;29783;52.504;13.478;2023-03-01T12:26:47;5.15;;;1.80;;
44120;SDS011;29783;52.504;13.478;2023-03-01T12:29:25;3.95;;;1.67;;
44120;SDS011;29783;52.504;13.478;2023-03-01T12:50:52;6.03;;;2.25;;
44120;SDS011;29783;52.504;13.478;2023-03-01T12:53:24;4.65;;;1.85;;
44120;SDS011;29783;52.504;13.478;2023-03-01T12:55:51;4.55;;;1.80;;
44120;SDS011;29783;52.504;13.478;2023-03-01T12:58:33;13.25;;;2.00;;
44120;SDS011;29783;52.504;13.478;2023-03-01T13:01:11;3.65;;;2.05;;
44120;SDS011;29783;52.504;13.478;2023-03-01T13:03:56;5.82;;;2.00;;
44120;SDS011;29783;52.504;13.478;2023-03-01T13:09:34;6.78;;;1.88;;
44120;SDS011;29783;52.504;13.478;2023-03-01T13:12:01;5.35;;;1.70;;
44120;SDS011;29783;52.504;13.478;2023-03-01T13:16:56;2.78;;;1.70;;
44120;SDS011;29783;52.504;13.478;2023-03-01T13:19:25;6.82;;;1.40;;
44120;SDS011;29783;52.504;13.478;2023-03-01T13:21:57;5.57;;;1.25;;
44120;SDS011;29783;52.504;13.478;2023-03-01T13:32:27;3.55;;;1.73;;
44120;SDS011;29783;52.504;13.478;2023-03-01T13:34:54;2.90;;;1.95;;
44120;SDS011;29783;52.504;13.478;2023-03-01T13:37:23;7.32;;;1.85;;
44120;SDS011;29783;52.504;13.478;2023-03-01T13:39:51;6.70;;;1.95;;
44120;SDS011;29783;52.504;13.478;2023-03-01T13:42:50;3.75;;;2.15;;
44120;SDS011;29783;52.504;13.478;2023-03-01T13:47:41;10.43;;;2.08;;
44120;SDS011;29783;52.504;13.478;2023-03-01T13:50:15;6.00;;;2.15;;
44120;SDS011;29783;52.504;13.478;2023-03-01T13:52:54;3.35;;;2.13;;
44120;SDS011;29783;52.504;13.478;2023-03-01T13:55:47;2.22;;;1.92;;
44120;SDS011;29783;52.504;13.478;2023-03-01T13:58:23;4.78;;;1.85;;
44120;SDS011;29783;52.504;13.478;2023-03-01T14:00:58;3.88;;;2.00;;
44120;SDS011;29783;52.504;13.478;2023-03-01T14:03:27;8.55;;;1.88;;
44120;SDS011;29783;52.504;13.478;2023-03-01T14:06:02;3.97;;;2.15;;
44120;SDS011;29783;52.504;13.478;2023-03-01T14:08:37;7.53;;;1.90;;
44120;SDS011;29783;52.504;13.478;2023-03-01T14:13:48;9.90;;;2.40;;
44120;SDS011;29783;52.504;13.478;2023-03-01T14:16:27;7.50;;;2.00;;
44120;SDS011;29783;52.504;13.478;2023-03-01T14:21:34;4.05;;;2.13;;
44120;SDS011;29783;52.504;13.478;2023-03-01T14:24:01;5.05;;;1.95;;
44120;SDS011;29783;52.504;13.478;2023-03-01T14:26:27;2.97;;;1.58;;
44120;SDS011;29783;52.504;13.478;2023-03-01T14:28:54;5.15;;;1.88;;
44120;SDS011;29783;52.504;13.478;2023-03-01T14:31:39;8.63;;;2.03;;
44120;SDS011;29783;52.504;13.478;2023-03-01T14:34:16;4.38;;;2.20;;
44120;SDS011;29783;52.504;13.478;2023-03-01T14:36:45;5.50;;;2.00;;
44120;SDS011;29783;52.504;13.478;2023-03-01T14:39:18;7.82;;;1.50;;
44120;SDS011;29783;52.504;13.478;2023-03-01T14:41:48;4.35;;;1.90;;
44120;SDS011;29783;52.504;13.478;2023-03-01T14:44:16;4.10;;;2.00;;
44120;SDS011;29783;52.504;13.478;2023-03-01T14:46:51;3.53;;;2.10;;
44120;SDS011;29783;52.504;13.478;2023-03-01T14:49:19;5.32;;;2.15;;
44120;SDS011;29783;52.504;13.478;2023-03-01T14:52:00;4.80;;;2.33;;
44120;SDS011;29783;52.504;13.478;2023-03-01T14:54:36;7.45;;;2.33;;
44120;SDS011;29783;52.504;13.478;2023-03-01T14:57:23;5.97;;;2.30;;
44120;SDS011;29783;52.504;13.478;2023-03-01T14:59:55;3.95;;;1.85;;
44120;SDS011;29783;52.504;13.478;2023-03-01T15:02:27;6.60;;;2.08;;
44120;SDS011;29783;52.504;13.478;2023-03-01T15:04:56;6.53;;;2.17;;
44120;SDS011;29783;52.504;13.478;2023-03-01T15:07:26;6.22;;;2.58;;
44120;SDS011;29783;52.504;13.478;2023-03-01T15:09:57;18.55;;;2.67;;
44120;SDS011;29783;52.504;13.478;2023-03-01T15:14:52;3.33;;;1.70;;
44120;SDS011;29783;52.504;13.478;2023-03-01T15:17:30;5.78;;;1.88;;
44120;SDS011;29783;52.504;13.478;2023-03-01T15:19:58;3.42;;;2.20;;
44120;SDS011;29783;52.504;13.478;2023-03-01T15:22:25;10.43;;;2.50;;
44120;SDS011;29783;52.504;13.478;2023-03-01T15:24:52;4.15;;;1.77;;
44120;SDS011;29783;52.504;13.478;2023-03-01T15:27:20;3.80;;;2.08;;
44120;SDS011;29783;52.504;13.478;2023-03-01T15:29:52;8.90;;;2.10;;
44120;SDS011;29783;52.504;13.478;2023-03-01T15:32:30;14.55;;;2.17;;
44120;SDS011;29783;52.504;13.478;2023-03-01T15:34:56;5.50;;;2.80;;
44120;SDS011;29783;52.504;13.478;2023-03-01T15:40:24;13.68;;;2.38;;
44120;SDS011;29783;52.504;13.478;2023-03-01T15:42:59;3.65;;;1.65;;
44120;SDS011;29783;52.504;13.478;2023-03-01T15:45:29;2.75;;;1.80;;
44120;SDS011;29783;52.504;13.478;2023-03-01T15:48:00;2.53;;;1.90;;
44120;SDS011;29783;52.504;13.478;2023-03-01T15:50:38;2.88;;;1.52;;
44120;SDS011;29783;52.504;13.478;2023-03-01T15:53:06;3.85;;;1.55;;
44120;SDS011;29783;52.504;13.478;2023-03-01T15:55:37;4.20;;;2.00;;
44120;SDS011;29783;52.504;13.478;2023-03-01T16:00:32;3.95;;;1.63;;
44120;SDS011;29783;52.504;13.478;2023-03-01T16:02:58;3.90;;;2.03;;
44120;SDS011;29783;52.504;13.478;2023-03-01T16:05:25;5.35;;;2.08;;
44120;SDS011;29783;52.504;13.478;2023-03-01T16:07:51;6.45;;;1.85;;
44120;SDS011;29783;52.504;13.478;2023-03-01T16:10:18;2.22;;;1.70;;
44120;SDS011;29783;52.504;13.478;2023-03-01T16:12:45;13.80;;;2.60;;
44120;SDS011;29783;52.504;13.478;2023-03-01T16:15:13;6.40;;;1.92;;
44120;SDS011;29783;52.504;13.478;2023-03-01T16:17:43;4.10;;;2.42;;
44120;SDS011;29783;52.504;13.478;2023-03-01T16:20:09;6.78;;;2.28;;
44120;SDS011;29783;52.504;13.478;2023-03-01T16:22:35;3.42;;;2.30;;
44120;SDS011;29783;52.504;13.478;2023-03-01T16:25:01;3.53;;;2.00;;
44120;SDS011;29783;52.504;13.478;2023-03-01T16:27:27;2.97;;;2.13;;
44120;SDS011;29783;52.504;13.478;2023-03-01T16:29:53;9.00;;;2.67;;
44120;SDS011;29783;52.504;13.478;2023-03-01T16:32:19;3.97;;;2.13;;
44120;SDS011;29783;52.504;13.478;2023-03-01T16:34:45;5.15;;;2.22;;
44120;SDS011;29783;52.504;13.478;2023-03-01T16:37:14;6.45;;;2.35;;
44120;SDS011;29783;52.504;13.478;2023-03-01T16:39:40;5.03;;;2.15;;
44120;SDS011;29783;52.504;13.478;2023-03-01T16:42:06;3.38;;;2.38;;
44120;SDS011;29783;52.504;13.478;2023-03-01T16:44:31;6.63;;;2.55;;
44120;SDS011;29783;52.504;13.478;2023-03-01T16:46:57;6.43;;;2.50;;
44120;SDS011;29783;52.504;13.478;2023-03-01T16:49:23;21.27;;;2.50;;
44120;SDS011;29783;52.504;13.478;2023-03-01T16:51:48;7.25;;;2.60;;
44120;SDS011;29783;52.504;13.478;2023-03-01T16:54:14;7.72;;;2.33;;